Time;durP1;ratioP1;P1;durP2;ratioP2;P2;SDS_P1;SDS_P2;PMS_P1;PMS_P2;Temp;Humidity;BMP_temperature;BMP_pressure;BME280_temperature;BME280_humidity;BME280_pressure;Samples;Min_cycle;Max_cycle;Signal;HPM_P1;HPM_P2
2023/02/05 00:13:13;;;;;;;42.07;20.20;;;;;;;-0.22;100.00;100292.09;31340034;28;20956;-81
2023/02/05 00:28:14;;;;;;;34.20;16.93;;;;;;;0.07;100.00;100302.41;31311120;28;20408;-80
2023/02/05 00:43:16;;;;;;;26.97;12.77;;;;;;;0.32;100.00;100295.78;31311657;28;20060;-81
2023/02/05 00:58:19;;;;;;;30.80;12.80;;;;;;;0.37;100.00;100296.66;31303570;28;20048;-82
2023/02/05 01:13:21;;;;;;;25.10;11.13;;;;;;;0.43;100.00;100300.63;31311584;28;20053;-80
2023/02/05 01:28:23;;;;;;;29.57;12.97;;;;;;;0.48;100.00;100297.69;31299774;28;20110;-79
2023/02/05 01:43:25;;;;;;;31.27;13.67;;;;;;;0.53;100.00;100290.19;31297192;28;20048;-81
2023/02/05 01:58:31;;;;;;;32.00;15.33;;;;;;;0.58;100.00;100302.50;31315373;28;20102;-81
2023/02/05 02:13:35;;;;;;;30.47;13.80;;;;;;;0.59;100.00;100304.06;31293741;28;20053;-80
2023/02/05 02:28:58;;;;;;;25.80;13.77;;;;;;;0.57;100.00;100303.63;31346445;28;20040;-81
2023/02/05 02:44:18;;;;;;;30.73;13.00;;;;;;;0.64;100.00;100301.13;31318436;28;20071;-80
2023/02/05 02:59:24;;;;;;;31.90;14.23;;;;;;;0.63;100.00;100294.25;31331937;28;20045;-81
2023/02/05 03:14:26;;;;;;;32.03;13.67;;;;;;;0.56;100.00;100297.50;31299763;28;20049;-81
2023/02/05 03:29:33;;;;;;;34.37;15.63;;;;;;;0.65;100.00;100298.13;31361431;28;20419;-81
2023/02/05 03:44:47;;;;;;;31.63;15.33;;;;;;;0.75;100.00;100302.16;31315062;28;20055;-81
2023/02/05 03:59:50;;;;;;;26.10;13.50;;;;;;;0.72;100.00;100313.53;31348126;28;20110;-78
2023/02/05 04:14:52;;;;;;;35.10;15.50;;;;;;;0.80;100.00;100322.50;31360740;28;20049;-80
2023/02/05 04:29:53;;;;;;;28.03;14.90;;;;;;;1.06;100.00;100337.97;31359745;28;20053;-81
2023/02/05 04:44:55;;;;;;;32.23;15.17;;;;;;;0.97;100.00;100346.94;31316664;28;20045;-81
2023/02/05 04:59:57;;;;;;;31.77;16.07;;;;;;;0.94;100.00;100362.94;31329689;28;20056;-81
2023/02/05 05:14:59;;;;;;;34.77;16.77;;;;;;;0.87;100.00;100368.09;31319386;28;20049;-81
2023/02/05 05:30:01;;;;;;;38.10;15.73;;;;;;;0.85;100.00;100378.34;31319949;28;20106;-82
2023/02/05 05:45:03;;;;;;;42.63;18.03;;;;;;;1.00;100.00;100393.59;31321674;28;20570;-80
2023/02/05 06:00:06;;;;;;;43.07;17.70;;;;;;;1.17;100.00;100395.16;31310668;28;20044;-81
2023/02/05 06:15:08;;;;;;;36.10;15.13;;;;;;;1.54;100.00;100404.38;31319414;28;20055;-81
2023/02/05 06:30:10;;;;;;;39.27;16.77;;;;;;;2.05;100.00;100423.03;31309476;28;20061;-81
2023/02/05 06:45:12;;;;;;;26.30;13.77;;;;;;;2.00;100.00;100447.41;31310923;28;20103;-81
2023/02/05 07:00:15;;;;;;;35.50;11.77;;;;;;;2.76;100.00;100458.41;31291377;28;20119;-82
2023/02/05 07:15:17;;;;;;;15.33;7.97;;;;;;;4.35;100.00;100476.03;31326762;28;20053;-83
2023/02/05 07:30:19;;;;;;;12.43;7.33;;;;;;;4.83;100.00;100485.00;31386840;28;20111;-82
2023/02/05 07:45:21;;;;;;;8.97;4.87;;;;;;;5.21;100.00;100504.56;31344364;28;20493;-84
2023/02/05 08:00:23;;;;;;;12.53;6.63;;;;;;;4.29;100.00;100509.75;31345639;28;20049;-81
2023/02/05 08:15:27;;;;;;;17.03;7.20;;;;;;;5.01;100.00;100534.38;31351120;28;20107;-77
2023/02/05 08:30:28;;;;;;;14.17;5.50;;;;;;;5.57;100.00;100537.94;31323359;28;20091;-77
2023/02/05 08:45:33;;;;;;;15.43;6.10;;;;;;;7.73;100.00;100522.47;31347590;28;20512;-78
2023/02/05 09:00:37;;;;;;;11.87;5.87;;;;;;;9.61;92.09;100537.00;31353843;28;20413;-78
2023/02/05 09:15:44;;;;;;;11.93;4.60;;;;;;;6.33;100.00;100530.72;31299339;28;20094;-77
2023/02/05 09:30:49;;;;;;;11.30;4.83;;;;;;;7.14;100.00;100524.78;31339308;28;20053;-77
2023/02/05 09:46:00;;;;;;;8.30;4.30;;;;;;;6.68;100.00;100530.06;31310615;28;20417;-77
2023/02/05 10:01:11;;;;;;;8.93;4.10;;;;;;;5.46;100.00;100549.38;31317316;28;20053;-83
2023/02/05 10:16:31;;;;;;;7.03;4.13;;;;;;;4.70;100.00;100540.22;31281327;28;20049;-84
2023/02/05 10:31:42;;;;;;;6.40;4.20;;;;;;;6.98;100.00;100532.47;31351538;28;20106;-88
2023/02/05 10:46:51;;;;;;;8.33;4.20;;;;;;;4.95;100.00;100541.25;31360258;28;20469;-86
2023/02/05 11:01:56;;;;;;;9.63;4.20;;;;;;;3.92;100.00;100553.44;31283026;28;20477;-86
2023/02/05 11:17:02;;;;;;;9.60;4.77;;;;;;;3.70;100.00;100560.38;31304787;28;20045;-85
2023/02/05 11:32:18;;;;;;;9.60;5.33;;;;;;;3.62;100.00;100558.72;31286374;28;20053;-82
2023/02/05 11:47:31;;;;;;;11.77;5.87;;;;;;;3.85;100.00;100560.59;31340960;28;20041;-86
2023/02/05 12:02:35;;;;;;;10.57;5.83;;;;;;;4.06;100.00;100574.34;31316508;28;20098;-86
2023/02/05 12:17:46;;;;;;;8.97;5.00;;;;;;;3.89;100.00;100583.69;31385564;28;20053;-84
2023/02/05 12:32:55;;;;;;;15.03;6.07;;;;;;;3.22;100.00;100596.00;31357040;28;20065;-84
2023/02/05 12:48:03;;;;;;;13.87;6.17;;;;;;;2.71;100.00;100606.91;31291934;28;20045;-80
2023/02/05 13:03:51;;;;;;;7.63;4.53;;;;;;;2.64;100.00;100606.75;31290425;28;20057;-78
2023/02/05 13:19:01;;;;;;;12.60;5.80;;;;;;;2.89;100.00;100617.97;31289474;28;20048;-79
2023/02/05 13:34:06;;;;;;;13.80;6.23;;;;;;;2.81;100.00;100638.53;31361797;28;20114;-82
2023/02/05 13:49:48;;;;;;;12.03;6.77;;;;;;;2.37;100.00;100627.25;31325690;28;20052;-80
2023/02/05 14:04:53;;;;;;;18.43;7.10;;;;;;;2.27;100.00;100651.91;31340303;28;20061;-79
2023/02/05 14:19:57;;;;;;;18.37;9.33;;;;;;;2.20;100.00;100647.16;31294736;28;20048;-79
2023/02/05 14:35:38;;;;;;;12.53;6.47;;;;;;;1.93;100.00;100658.75;31363760;28;20044;-80
2023/02/05 14:50:43;;;;;;;9.30;5.73;;;;;;;1.83;100.00;100675.38;31318466;28;20477;-77
2023/02/05 15:05:49;;;;;;;13.67;6.33;;;;;;;1.65;100.00;100683.69;31308760;28;20084;-79
2023/02/05 15:20:55;;;;;;;15.57;7.53;;;;;;;1.69;100.00;100697.97;31324283;28;20053;-77
2023/02/05 15:35:58;;;;;;;13.43;7.10;;;;;;;1.58;100.00;100704.94;31320887;28;20041;-76
2023/02/05 15:51:17;;;;;;;16.90;7.07;;;;;;;1.50;100.00;100705.88;31339565;28;20057;-75
2023/02/05 16:06:21;;;;;;;12.10;6.53;;;;;;;1.53;100.00;100710.53;31344550;28;20440;-75
2023/02/05 16:21:37;;;;;;;19.97;7.70;;;;;;;1.55;100.00;100713.66;31310290;28;20057;-78
2023/02/05 16:36:42;;;;;;;13.07;6.77;;;;;;;1.32;100.00;100715.31;31315214;28;20084;-77
2023/02/05 16:51:44;;;;;;;19.57;8.27;;;;;;;1.30;100.00;100701.50;31302718;28;20110;-76
2023/02/05 17:06:46;;;;;;;17.73;8.50;;;;;;;1.29;100.00;100694.59;31300999;28;20045;-75
2023/02/05 17:22:08;;;;;;;23.27;9.10;;;;;;;1.48;100.00;100702.75;31303818;28;20053;-76
2023/02/05 17:37:10;;;;;;;20.83;9.70;;;;;;;1.47;100.00;100711.13;31290287;28;20057;-76
2023/02/05 17:52:14;;;;;;;18.57;8.20;;;;;;;1.55;100.00;100713.66;31289549;28;20083;-77
2023/02/05 18:07:19;;;;;;;18.67;9.37;;;;;;;1.49;100.00;100719.59;31256157;28;20068;-77
2023/02/05 18:22:21;;;;;;;12.17;6.10;;;;;;;1.51;100.00;100728.84;31302437;28;20049;-74
2023/02/05 18:37:23;;;;;;;37.17;14.43;;;;;;;1.64;100.00;100733.03;31279803;28;20485;-76
2023/02/05 18:52:29;;;;;;;14.30;7.07;;;;;;;1.48;100.00;100729.50;31280112;28;20115;-74
2023/02/05 19:07:31;;;;;;;14.47;7.43;;;;;;;1.47;100.00;100727.97;31315769;28;20052;-75
2023/02/05 19:22:33;;;;;;;17.00;7.70;;;;;;;1.12;100.00;100727.78;31344822;28;20434;-74
2023/02/05 19:37:34;;;;;;;11.97;6.70;;;;;;;1.13;100.00;100729.31;31344876;28;20045;-76
2023/02/05 19:52:37;;;;;;;15.67;7.40;;;;;;;1.16;100.00;100728.66;31310970;28;20546;-76
2023/02/05 20:07:39;;;;;;;36.80;16.30;;;;;;;1.13;100.00;100744.59;31311434;28;20040;-73
2023/02/05 20:22:41;;;;;;;22.40;9.20;;;;;;;1.14;100.00;100746.16;31318195;28;20099;-85
2023/02/05 20:37:43;;;;;;;22.77;9.27;;;;;;;1.22;100.00;100746.00;31379134;28;20049;-84
2023/02/05 20:52:44;;;;;;;16.63;8.67;;;;;;;1.14;100.00;100756.84;31320581;28;20057;-84
2023/02/05 21:07:46;;;;;;;22.07;10.07;;;;;;;1.13;100.00;100776.69;31277540;28;20890;-82
2023/02/05 21:22:48;;;;;;;24.20;10.33;;;;;;;1.16;100.00;100781.34;31365797;28;20793;-84
2023/02/05 21:37:50;;;;;;;27.50;10.87;;;;;;;1.26;100.00;100788.91;31291463;28;20049;-83
2023/02/05 21:52:53;;;;;;;18.33;9.40;;;;;;;1.16;100.00;100789.38;31316439;28;20049;-82
2023/02/05 22:07:55;;;;;;;20.73;10.00;;;;;;;1.16;100.00;100802.75;31312535;28;20040;-82
2023/02/05 22:22:57;;;;;;;26.03;9.90;;;;;;;1.09;100.00;100803.31;31306109;28;20574;-84
2023/02/05 22:37:59;;;;;;;27.90;10.77;;;;;;;1.10;100.00;100809.44;31320818;28;20053;-84
2023/02/05 22:53:01;;;;;;;21.97;10.27;;;;;;;0.96;100.00;100826.59;31324388;28;20056;-82
2023/02/05 23:08:03;;;;;;;22.97;9.93;;;;;;;0.88;100.00;100840.88;31331906;28;20049;-83
2023/02/05 23:23:08;;;;;;;24.87;11.00;;;;;;;0.93;100.00;100859.38;31333972;28;20057;-81
2023/02/05 23:38:10;;;;;;;28.77;10.70;;;;;;;0.97;100.00;100876.28;31290088;28;20451;-83
2023/02/05 23:53:19;;;;;;;24.57;10.33;;;;;;;0.96;100.00;100869.38;31338682;28;20056;-83
